sensor_id;sensor_type;location;lat;lon;timestamp;P1;durP1;ratioP1;P2;durP2;ratioP2
61015;SDS011;46902;52.920;6.536;2023-04-23T00:01:55;95.75;;;26.77;;
61015;SDS011;46902;52.920;6.536;2023-04-23T00:04:24;174.32;;;32.85;;
61015;SDS011;46902;52.920;6.536;2023-04-23T00:06:50;58.45;;;26.85;;
61015;SDS011;46902;52.920;6.536;2023-04-23T00:09:16;38.58;;;26.05;;
61015;SDS011;46902;52.920;6.536;2023-04-23T00:11:43;37.15;;;25.55;;
61015;SDS011;46902;52.920;6.536;2023-04-23T00:14:08;40.38;;;26.15;;
61015;SDS011;46902;52.920;6.536;2023-04-23T00:16:35;31.92;;;23.42;;
61015;SDS011;46902;52.920;6.536;2023-04-23T00:19:01;38.78;;;26.35;;
61015;SDS011;46902;52.920;6.536;2023-04-23T00:21:27;36.72;;;25.65;;
61015;SDS011;46902;52.920;6.536;2023-04-23T00:23:53;41.33;;;27.23;;
61015;SDS011;46902;52.920;6.536;2023-04-23T00:26:18;38.45;;;27.35;;
61015;SDS011;46902;52.920;6.536;2023-04-23T00:28:44;35.25;;;25.50;;
61015;SDS011;46902;52.920;6.536;2023-04-23T00:31:10;40.70;;;27.20;;
61015;SDS011;46902;52.920;6.536;2023-04-23T00:33:36;37.00;;;27.23;;
61015;SDS011;46902;52.920;6.536;2023-04-23T00:36:02;41.17;;;27.40;;
61015;SDS011;46902;52.920;6.536;2023-04-23T00:38:28;35.25;;;25.23;;
61015;SDS011;46902;52.920;6.536;2023-04-23T00:40:53;40.42;;;27.50;;
61015;SDS011;46902;52.920;6.536;2023-04-23T00:43:19;42.70;;;29.15;;
61015;SDS011;46902;52.920;6.536;2023-04-23T00:45:46;38.85;;;26.42;;
61015;SDS011;46902;52.920;6.536;2023-04-23T00:48:11;48.47;;;30.20;;
61015;SDS011;46902;52.920;6.536;2023-04-23T00:50:38;45.22;;;28.80;;
61015;SDS011;46902;52.920;6.536;2023-04-23T00:53:03;41.58;;;29.70;;
61015;SDS011;46902;52.920;6.536;2023-04-23T00:55:29;42.88;;;28.00;;
61015;SDS011;46902;52.920;6.536;2023-04-23T00:57:55;39.08;;;27.05;;
61015;SDS011;46902;52.920;6.536;2023-04-23T01:00:21;45.20;;;30.50;;
61015;SDS011;46902;52.920;6.536;2023-04-23T01:02:47;45.55;;;29.08;;
61015;SDS011;46902;52.920;6.536;2023-04-23T01:05:14;46.67;;;31.10;;
61015;SDS011;46902;52.920;6.536;2023-04-23T01:07:42;43.10;;;28.80;;
61015;SDS011;46902;52.920;6.536;2023-04-23T01:10:08;41.28;;;30.02;;
61015;SDS011;46902;52.920;6.536;2023-04-23T01:12:36;48.08;;;30.88;;
61015;SDS011;46902;52.920;6.536;2023-04-23T01:15:02;45.67;;;30.52;;
61015;SDS011;46902;52.920;6.536;2023-04-23T01:17:28;45.45;;;29.98;;
61015;SDS011;46902;52.920;6.536;2023-04-23T01:19:54;53.17;;;34.45;;
61015;SDS011;46902;52.920;6.536;2023-04-23T01:22:20;49.70;;;34.15;;
61015;SDS011;46902;52.920;6.536;2023-04-23T01:24:46;50.55;;;33.50;;
61015;SDS011;46902;52.920;6.536;2023-04-23T01:27:11;53.55;;;34.55;;
61015;SDS011;46902;52.920;6.536;2023-04-23T01:29:37;52.50;;;35.90;;
61015;SDS011;46902;52.920;6.536;2023-04-23T01:32:04;51.75;;;35.75;;
61015;SDS011;46902;52.920;6.536;2023-04-23T01:34:31;55.83;;;36.63;;
61015;SDS011;46902;52.920;6.536;2023-04-23T01:37:01;66.50;;;40.15;;
61015;SDS011;46902;52.920;6.536;2023-04-23T01:39:28;66.55;;;40.47;;
61015;SDS011;46902;52.920;6.536;2023-04-23T01:41:53;71.63;;;43.60;;
61015;SDS011;46902;52.920;6.536;2023-04-23T01:44:19;95.47;;;50.28;;
61015;SDS011;46902;52.920;6.536;2023-04-23T01:46:45;103.05;;;53.95;;
61015;SDS011;46902;52.920;6.536;2023-04-23T01:49:10;108.05;;;53.47;;
61015;SDS011;46902;52.920;6.536;2023-04-23T01:51:37;92.70;;;53.05;;
61015;SDS011;46902;52.920;6.536;2023-04-23T01:54:02;105.30;;;56.53;;
61015;SDS011;46902;52.920;6.536;2023-04-23T01:56:28;98.30;;;54.58;;
61015;SDS011;46902;52.920;6.536;2023-04-23T01:58:54;123.93;;;60.42;;
61015;SDS011;46902;52.920;6.536;2023-04-23T02:01:20;99.13;;;55.95;;
61015;SDS011;46902;52.920;6.536;2023-04-23T02:03:47;98.55;;;56.50;;
61015;SDS011;46902;52.920;6.536;2023-04-23T02:06:14;112.10;;;59.13;;
61015;SDS011;46902;52.920;6.536;2023-04-23T02:08:39;108.38;;;59.17;;
61015;SDS011;46902;52.920;6.536;2023-04-23T02:11:05;93.57;;;55.58;;
61015;SDS011;46902;52.920;6.536;2023-04-23T02:13:31;87.35;;;53.70;;
61015;SDS011;46902;52.920;6.536;2023-04-23T02:15:57;90.68;;;54.03;;
61015;SDS011;46902;52.920;6.536;2023-04-23T02:18:23;87.50;;;53.60;;
61015;SDS011;46902;52.920;6.536;2023-04-23T02:20:48;87.43;;;51.92;;
61015;SDS011;46902;52.920;6.536;2023-04-23T02:23:14;86.25;;;53.17;;
61015;SDS011;46902;52.920;6.536;2023-04-23T02:25:39;70.43;;;47.80;;
61015;SDS011;46902;52.920;6.536;2023-04-23T02:28:07;80.95;;;52.78;;
61015;SDS011;46902;52.920;6.536;2023-04-23T02:30:35;82.05;;;52.70;;
61015;SDS011;46902;52.920;6.536;2023-04-23T02:33:01;85.60;;;50.85;;
61015;SDS011;46902;52.920;6.536;2023-04-23T02:35:28;82.65;;;50.35;;
61015;SDS011;46902;52.920;6.536;2023-04-23T02:37:54;79.93;;;51.72;;
61015;SDS011;46902;52.920;6.536;2023-04-23T02:40:20;92.20;;;56.83;;
61015;SDS011;46902;52.920;6.536;2023-04-23T02:42:46;79.82;;;51.70;;
61015;SDS011;46902;52.920;6.536;2023-04-23T02:45:11;83.25;;;54.67;;
61015;SDS011;46902;52.920;6.536;2023-04-23T02:47:37;90.80;;;56.25;;
61015;SDS011;46902;52.920;6.536;2023-04-23T02:50:04;87.72;;;56.90;;
61015;SDS011;46902;52.920;6.536;2023-04-23T02:52:30;87.70;;;56.13;;
61015;SDS011;46902;52.920;6.536;2023-04-23T02:54:56;90.78;;;57.40;;
61015;SDS011;46902;52.920;6.536;2023-04-23T02:57:23;94.75;;;57.47;;
61015;SDS011;46902;52.920;6.536;2023-04-23T02:59:49;79.07;;;54.47;;
61015;SDS011;46902;52.920;6.536;2023-04-23T03:02:14;85.82;;;55.15;;
61015;SDS011;46902;52.920;6.536;2023-04-23T03:04:40;84.93;;;54.75;;
61015;SDS011;46902;52.920;6.536;2023-04-23T03:07:06;79.82;;;52.55;;
61015;SDS011;46902;52.920;6.536;2023-04-23T03:09:32;86.40;;;55.22;;
61015;SDS011;46902;52.920;6.536;2023-04-23T03:11:57;79.97;;;52.42;;
61015;SDS011;46902;52.920;6.536;2023-04-23T03:14:23;87.05;;;56.13;;
61015;SDS011;46902;52.920;6.536;2023-04-23T03:16:49;84.00;;;54.72;;
61015;SDS011;46902;52.920;6.536;2023-04-23T03:19:15;72.13;;;50.80;;
61015;SDS011;46902;52.920;6.536;2023-04-23T03:21:41;80.00;;;53.58;;
61015;SDS011;46902;52.920;6.536;2023-04-23T03:24:06;85.07;;;53.75;;
61015;SDS011;46902;52.920;6.536;2023-04-23T03:26:32;98.22;;;53.50;;
61015;SDS011;46902;52.920;6.536;2023-04-23T03:28:58;279.00;;;62.33;;
61015;SDS011;46902;52.920;6.536;2023-04-23T03:31:24;129.52;;;58.15;;
61015;SDS011;46902;52.920;6.536;2023-04-23T03:33:50;422.15;;;68.60;;
61015;SDS011;46902;52.920;6.536;2023-04-23T03:36:15;110.20;;;55.22;;
61015;SDS011;46902;52.920;6.536;2023-04-23T03:38:41;232.98;;;54.53;;
61015;SDS011;46902;52.920;6.536;2023-04-23T03:41:06;282.13;;;62.83;;
61015;SDS011;46902;52.920;6.536;2023-04-23T03:43:32;233.15;;;53.72;;
61015;SDS011;46902;52.920;6.536;2023-04-23T03:45:57;131.23;;;54.05;;
61015;SDS011;46902;52.920;6.536;2023-04-23T03:48:23;210.65;;;55.78;;
61015;SDS011;46902;52.920;6.536;2023-04-23T03:50:49;232.63;;;57.75;;
61015;SDS011;46902;52.920;6.536;2023-04-23T03:53:14;194.65;;;53.22;;
61015;SDS011;46902;52.920;6.536;2023-04-23T03:55:41;144.20;;;51.63;;
61015;SDS011;46902;52.920;6.536;2023-04-23T03:58:10;179.70;;;51.58;;
61015;SDS011;46902;52.920;6.536;2023-04-23T04:00:36;160.98;;;48.63;;
61015;SDS011;46902;52.920;6.536;2023-04-23T04:03:01;302.48;;;51.90;;
61015;SDS011;46902;52.920;6.536;2023-04-23T04:05:28;215.93;;;52.83;;
61015;SDS011;46902;52.920;6.536;2023-04-23T04:07:53;262.17;;;54.50;;
61015;SDS011;46902;52.920;6.536;2023-04-23T04:10:19;291.02;;;54.75;;
61015;SDS011;46902;52.920;6.536;2023-04-23T04:12:45;346.42;;;57.45;;
61015;SDS011;46902;52.920;6.536;2023-04-23T04:15:12;263.85;;;54.05;;
61015;SDS011;46902;52.920;6.536;2023-04-23T04:17:38;169.75;;;54.17;;
61015;SDS011;46902;52.920;6.536;2023-04-23T04:20:05;286.08;;;60.63;;
61015;SDS011;46902;52.920;6.536;2023-04-23T04:22:35;366.88;;;63.80;;
61015;SDS011;46902;52.920;6.536;2023-04-23T04:25:00;316.15;;;62.67;;
61015;SDS011;46902;52.920;6.536;2023-04-23T04:27:26;232.38;;;63.00;;
61015;SDS011;46902;52.920;6.536;2023-04-23T04:29:52;142.75;;;58.70;;
61015;SDS011;46902;52.920;6.536;2023-04-23T04:32:17;235.27;;;64.03;;
61015;SDS011;46902;52.920;6.536;2023-04-23T04:34:43;253.73;;;62.35;;
61015;SDS011;46902;52.920;6.536;2023-04-23T04:37:09;245.98;;;67.60;;
61015;SDS011;46902;52.920;6.536;2023-04-23T04:39:35;187.20;;;65.13;;
61015;SDS011;46902;52.920;6.536;2023-04-23T04:42:01;171.35;;;69.25;;
61015;SDS011;46902;52.920;6.536;2023-04-23T04:44:28;158.63;;;65.40;;
61015;SDS011;46902;52.920;6.536;2023-04-23T04:46:54;201.15;;;66.20;;
61015;SDS011;46902;52.920;6.536;2023-04-23T04:49:20;195.50;;;69.35;;
61015;SDS011;46902;52.920;6.536;2023-04-23T04:51:46;148.75;;;63.78;;
61015;SDS011;46902;52.920;6.536;2023-04-23T04:54:12;168.93;;;68.43;;
61015;SDS011;46902;52.920;6.536;2023-04-23T04:56:38;171.77;;;63.35;;
61015;SDS011;46902;52.920;6.536;2023-04-23T04:59:04;163.75;;;68.75;;
61015;SDS011;46902;52.920;6.536;2023-04-23T05:01:29;120.30;;;66.68;;
61015;SDS011;46902;52.920;6.536;2023-04-23T05:03:56;118.70;;;66.72;;
61015;SDS011;46902;52.920;6.536;2023-04-23T05:06:22;113.57;;;64.57;;
61015;SDS011;46902;52.920;6.536;2023-04-23T05:08:48;128.43;;;68.22;;
61015;SDS011;46902;52.920;6.536;2023-04-23T05:11:14;135.88;;;69.10;;
61015;SDS011;46902;52.920;6.536;2023-04-23T05:13:41;108.53;;;64.70;;
61015;SDS011;46902;52.920;6.536;2023-04-23T05:16:07;124.78;;;69.25;;
61015;SDS011;46902;52.920;6.536;2023-04-23T05:18:33;112.15;;;64.50;;
61015;SDS011;46902;52.920;6.536;2023-04-23T05:20:59;118.88;;;65.40;;
61015;SDS011;46902;52.920;6.536;2023-04-23T05:23:25;99.93;;;60.08;;
61015;SDS011;46902;52.920;6.536;2023-04-23T05:25:50;101.00;;;62.03;;
61015;SDS011;46902;52.920;6.536;2023-04-23T05:28:19;93.18;;;61.42;;
61015;SDS011;46902;52.920;6.536;2023-04-23T05:30:45;94.53;;;60.50;;
61015;SDS011;46902;52.920;6.536;2023-04-23T05:33:11;107.88;;;62.50;;
61015;SDS011;46902;52.920;6.536;2023-04-23T05:35:36;100.63;;;61.20;;
61015;SDS011;46902;52.920;6.536;2023-04-23T05:38:02;110.15;;;62.65;;
61015;SDS011;46902;52.920;6.536;2023-04-23T05:40:29;96.65;;;58.55;;
61015;SDS011;46902;52.920;6.536;2023-04-23T05:42:57;86.72;;;56.10;;
61015;SDS011;46902;52.920;6.536;2023-04-23T05:45:23;94.85;;;59.45;;
61015;SDS011;46902;52.920;6.536;2023-04-23T05:47:49;97.05;;;60.53;;
61015;SDS011;46902;52.920;6.536;2023-04-23T05:50:15;98.03;;;60.33;;
61015;SDS011;46902;52.920;6.536;2023-04-23T05:52:41;94.07;;;60.28;;
61015;SDS011;46902;52.920;6.536;2023-04-23T05:55:07;103.00;;;60.67;;
61015;SDS011;46902;52.920;6.536;2023-04-23T05:57:34;88.25;;;57.25;;
61015;SDS011;46902;52.920;6.536;2023-04-23T06:00:00;100.85;;;60.65;;
61015;SDS011;46902;52.920;6.536;2023-04-23T06:02:26;90.20;;;57.88;;
61015;SDS011;46902;52.920;6.536;2023-04-23T06:04:53;92.05;;;58.88;;
61015;SDS011;46902;52.920;6.536;2023-04-23T06:07:18;96.70;;;58.25;;
61015;SDS011;46902;52.920;6.536;2023-04-23T06:09:44;94.05;;;59.28;;
61015;SDS011;46902;52.920;6.536;2023-04-23T06:12:10;96.10;;;57.30;;
61015;SDS011;46902;52.920;6.536;2023-04-23T06:14:36;92.40;;;56.20;;
61015;SDS011;46902;52.920;6.536;2023-04-23T06:17:01;92.63;;;56.53;;
61015;SDS011;46902;52.920;6.536;2023-04-23T06:19:27;82.05;;;53.05;;
61015;SDS011;46902;52.920;6.536;2023-04-23T06:21:53;90.07;;;55.60;;
61015;SDS011;46902;52.920;6.536;2023-04-23T06:24:18;83.03;;;55.38;;
61015;SDS011;46902;52.920;6.536;2023-04-23T06:26:44;77.25;;;51.35;;
61015;SDS011;46902;52.920;6.536;2023-04-23T06:29:10;81.93;;;52.17;;
61015;SDS011;46902;52.920;6.536;2023-04-23T06:31:35;78.80;;;51.88;;
61015;SDS011;46902;52.920;6.536;2023-04-23T06:34:01;81.38;;;50.83;;
61015;SDS011;46902;52.920;6.536;2023-04-23T06:36:27;78.65;;;52.58;;
61015;SDS011;46902;52.920;6.536;2023-04-23T06:38:53;76.05;;;51.10;;
61015;SDS011;46902;52.920;6.536;2023-04-23T06:41:18;76.32;;;49.47;;
61015;SDS011;46902;52.920;6.536;2023-04-23T06:43:45;77.28;;;51.28;;
61015;SDS011;46902;52.920;6.536;2023-04-23T06:46:12;71.03;;;48.65;;
61015;SDS011;46902;52.920;6.536;2023-04-23T06:48:38;75.10;;;48.88;;
61015;SDS011;46902;52.920;6.536;2023-04-23T06:51:04;74.18;;;49.60;;
61015;SDS011;46902;52.920;6.536;2023-04-23T06:53:30;68.68;;;47.40;;
61015;SDS011;46902;52.920;6.536;2023-04-23T06:55:56;66.32;;;47.55;;
61015;SDS011;46902;52.920;6.536;2023-04-23T06:58:21;72.82;;;47.20;;
61015;SDS011;46902;52.920;6.536;2023-04-23T07:00:51;68.80;;;46.83;;
61015;SDS011;46902;52.920;6.536;2023-04-23T07:03:17;64.18;;;44.35;;
61015;SDS011;46902;52.920;6.536;2023-04-23T07:05:43;67.28;;;44.85;;
61015;SDS011;46902;52.920;6.536;2023-04-23T07:08:09;61.13;;;42.70;;
61015;SDS011;46902;52.920;6.536;2023-04-23T07:10:35;57.20;;;42.47;;
61015;SDS011;46902;52.920;6.536;2023-04-23T07:13:00;58.90;;;42.30;;
61015;SDS011;46902;52.920;6.536;2023-04-23T07:15:26;58.08;;;43.10;;
61015;SDS011;46902;52.920;6.536;2023-04-23T07:17:51;53.38;;;40.35;;
61015;SDS011;46902;52.920;6.536;2023-04-23T07:20:17;55.65;;;40.28;;
61015;SDS011;46902;52.920;6.536;2023-04-23T07:22:44;52.35;;;37.80;;
61015;SDS011;46902;52.920;6.536;2023-04-23T07:25:10;56.05;;;41.33;;
61015;SDS011;46902;52.920;6.536;2023-04-23T07:27:35;52.50;;;39.38;;
61015;SDS011;46902;52.920;6.536;2023-04-23T07:30:01;50.42;;;38.03;;
61015;SDS011;46902;52.920;6.536;2023-04-23T07:32:27;46.80;;;36.88;;
61015;SDS011;46902;52.920;6.536;2023-04-23T07:34:53;46.25;;;36.60;;
61015;SDS011;46902;52.920;6.536;2023-04-23T07:37:20;46.15;;;35.70;;
61015;SDS011;46902;52.920;6.536;2023-04-23T07:39:46;52.03;;;38.10;;
61015;SDS011;46902;52.920;6.536;2023-04-23T07:42:12;47.72;;;35.10;;
61015;SDS011;46902;52.920;6.536;2023-04-23T07:44:37;49.00;;;37.08;;
61015;SDS011;46902;52.920;6.536;2023-04-23T07:47:03;45.17;;;34.85;;
61015;SDS011;46902;52.920;6.536;2023-04-23T07:49:29;46.78;;;34.97;;
61015;SDS011;46902;52.920;6.536;2023-04-23T07:51:55;40.28;;;32.83;;
61015;SDS011;46902;52.920;6.536;2023-04-23T07:54:20;43.67;;;35.35;;
61015;SDS011;46902;52.920;6.536;2023-04-23T07:56:46;42.00;;;33.22;;
61015;SDS011;46902;52.920;6.536;2023-04-23T07:59:12;41.67;;;32.63;;
61015;SDS011;46902;52.920;6.536;2023-04-23T08:01:37;40.78;;;31.48;;
61015;SDS011;46902;52.920;6.536;2023-04-23T08:04:03;37.97;;;31.63;;
61015;SDS011;46902;52.920;6.536;2023-04-23T08:06:29;36.83;;;29.63;;
61015;SDS011;46902;52.920;6.536;2023-04-23T08:08:55;35.50;;;29.00;;
61015;SDS011;46902;52.920;6.536;2023-04-23T08:11:21;35.00;;;29.13;;
61015;SDS011;46902;52.920;6.536;2023-04-23T08:13:47;35.67;;;29.15;;
61015;SDS011;46902;52.920;6.536;2023-04-23T08:16:13;37.97;;;29.63;;
61015;SDS011;46902;52.920;6.536;2023-04-23T08:18:40;39.78;;;29.42;;
61015;SDS011;46902;52.920;6.536;2023-04-23T08:21:06;36.42;;;28.98;;
61015;SDS011;46902;52.920;6.536;2023-04-23T08:23:31;35.25;;;29.00;;
61015;SDS011;46902;52.920;6.536;2023-04-23T08:25:57;33.92;;;27.23;;
61015;SDS011;46902;52.920;6.536;2023-04-23T08:28:23;36.22;;;26.98;;
61015;SDS011;46902;52.920;6.536;2023-04-23T08:30:48;34.22;;;27.33;;
61015;SDS011;46902;52.920;6.536;2023-04-23T08:33:14;27.48;;;23.48;;
61015;SDS011;46902;52.920;6.536;2023-04-23T08:35:39;31.35;;;25.27;;
61015;SDS011;46902;52.920;6.536;2023-04-23T08:38:05;31.08;;;25.10;;
61015;SDS011;46902;52.920;6.536;2023-04-23T08:40:31;29.75;;;24.77;;
61015;SDS011;46902;52.920;6.536;2023-04-23T08:43:01;26.25;;;22.98;;
61015;SDS011;46902;52.920;6.536;2023-04-23T08:45:30;28.35;;;23.92;;
61015;SDS011;46902;52.920;6.536;2023-04-23T08:47:58;26.13;;;22.45;;
61015;SDS011;46902;52.920;6.536;2023-04-23T08:50:25;25.05;;;22.20;;
61015;SDS011;46902;52.920;6.536;2023-04-23T08:52:53;27.25;;;21.90;;
61015;SDS011;46902;52.920;6.536;2023-04-23T08:55:20;20.90;;;18.60;;
61015;SDS011;46902;52.920;6.536;2023-04-23T08:57:47;24.95;;;19.95;;
61015;SDS011;46902;52.920;6.536;2023-04-23T09:00:14;21.80;;;18.42;;
61015;SDS011;46902;52.920;6.536;2023-04-23T09:02:42;24.15;;;20.20;;
61015;SDS011;46902;52.920;6.536;2023-04-23T09:05:10;19.25;;;16.33;;
61015;SDS011;46902;52.920;6.536;2023-04-23T09:07:36;20.15;;;15.90;;
61015;SDS011;46902;52.920;6.536;2023-04-23T09:10:03;19.17;;;16.13;;
61015;SDS011;46902;52.920;6.536;2023-04-23T09:12:34;22.65;;;17.13;;
61015;SDS011;46902;52.920;6.536;2023-04-23T09:15:00;19.10;;;14.90;;
61015;SDS011;46902;52.920;6.536;2023-04-23T09:17:28;17.67;;;14.40;;
61015;SDS011;46902;52.920;6.536;2023-04-23T09:19:56;18.48;;;13.27;;
61015;SDS011;46902;52.920;6.536;2023-04-23T09:22:36;18.75;;;13.57;;
61015;SDS011;46902;52.920;6.536;2023-04-23T09:25:03;15.70;;;12.10;;
61015;SDS011;46902;52.920;6.536;2023-04-23T09:27:29;16.08;;;12.02;;
61015;SDS011;46902;52.920;6.536;2023-04-23T09:29:55;17.92;;;12.15;;
61015;SDS011;46902;52.920;6.536;2023-04-23T09:32:29;18.90;;;11.13;;
61015;SDS011;46902;52.920;6.536;2023-04-23T09:34:57;19.13;;;12.38;;
61015;SDS011;46902;52.920;6.536;2023-04-23T09:37:26;18.25;;;11.50;;
61015;SDS011;46902;52.920;6.536;2023-04-23T09:39:52;16.50;;;11.43;;
61015;SDS011;46902;52.920;6.536;2023-04-23T09:42:22;17.73;;;10.77;;
61015;SDS011;46902;52.920;6.536;2023-04-23T09:45:21;14.18;;;8.65;;
61015;SDS011;46902;52.920;6.536;2023-04-23T09:47:41;13.20;;;8.60;;
61015;SDS011;46902;52.920;6.536;2023-04-23T09:50:16;15.77;;;8.15;;
61015;SDS011;46902;52.920;6.536;2023-04-23T09:52:42;13.88;;;8.25;;
61015;SDS011;46902;52.920;6.536;2023-04-23T09:55:08;17.92;;;7.65;;
61015;SDS011;46902;52.920;6.536;2023-04-23T09:57:34;15.02;;;7.13;;
61015;SDS011;46902;52.920;6.536;2023-04-23T10:00:11;14.15;;;6.60;;
61015;SDS011;46902;52.920;6.536;2023-04-23T10:02:39;14.25;;;8.30;;
61015;SDS011;46902;52.920;6.536;2023-04-23T10:05:16;17.85;;;7.00;;
61015;SDS011;46902;52.920;6.536;2023-04-23T10:07:43;12.43;;;6.97;;
61015;SDS011;46902;52.920;6.536;2023-04-23T10:10:13;14.70;;;7.75;;
61015;SDS011;46902;52.920;6.536;2023-04-23T10:12:40;12.57;;;6.80;;
61015;SDS011;46902;52.920;6.536;2023-04-23T10:15:07;19.52;;;7.30;;
61015;SDS011;46902;52.920;6.536;2023-04-23T10:17:35;13.80;;;5.90;;
61015;SDS011;46902;52.920;6.536;2023-04-23T10:20:01;10.98;;;5.95;;
61015;SDS011;46902;52.920;6.536;2023-04-23T10:22:28;9.38;;;5.13;;
61015;SDS011;46902;52.920;6.536;2023-04-23T10:24:55;11.73;;;5.72;;
61015;SDS011;46902;52.920;6.536;2023-04-23T10:27:28;15.25;;;6.10;;
61015;SDS011;46902;52.920;6.536;2023-04-23T10:30:03;12.63;;;5.63;;
61015;SDS011;46902;52.920;6.536;2023-04-23T10:32:29;10.35;;;5.75;;
61015;SDS011;46902;52.920;6.536;2023-04-23T10:34:57;10.30;;;5.32;;
61015;SDS011;46902;52.920;6.536;2023-04-23T10:37:22;8.65;;;4.65;;
61015;SDS011;46902;52.920;6.536;2023-04-23T10:39:49;11.95;;;4.93;;
61015;SDS011;46902;52.920;6.536;2023-04-23T10:42:19;9.65;;;5.32;;
61015;SDS011;46902;52.920;6.536;2023-04-23T10:44:46;10.05;;;4.80;;
61015;SDS011;46902;52.920;6.536;2023-04-23T10:47:13;12.88;;;5.07;;
61015;SDS011;46902;52.920;6.536;2023-04-23T10:49:40;12.63;;;5.63;;
61015;SDS011;46902;52.920;6.536;2023-04-23T10:52:11;9.00;;;4.93;;
61015;SDS011;46902;52.920;6.536;2023-04-23T10:54:39;9.30;;;4.80;;
61015;SDS011;46902;52.920;6.536;2023-04-23T10:57:12;10.18;;;4.53;;
61015;SDS011;46902;52.920;6.536;2023-04-23T10:59:39;9.95;;;4.68;;
61015;SDS011;46902;52.920;6.536;2023-04-23T11:02:15;9.73;;;4.63;;
61015;SDS011;46902;52.920;6.536;2023-04-23T11:04:45;8.50;;;3.97;;
61015;SDS011;46902;52.920;6.536;2023-04-23T11:07:30;9.23;;;4.20;;
61015;SDS011;46902;52.920;6.536;2023-04-23T11:10:15;8.65;;;3.08;;
61015;SDS011;46902;52.920;6.536;2023-04-23T11:12:40;7.22;;;2.92;;
61015;SDS011;46902;52.920;6.536;2023-04-23T11:15:11;11.93;;;3.30;;
61015;SDS011;46902;52.920;6.536;2023-04-23T11:20:17;8.82;;;2.58;;
61015;SDS011;46902;52.920;6.536;2023-04-23T11:25:15;8.05;;;2.75;;
61015;SDS011;46902;52.920;6.536;2023-04-23T11:27:46;8.20;;;2.10;;
61015;SDS011;46902;52.920;6.536;2023-04-23T11:30:14;7.35;;;2.10;;
61015;SDS011;46902;52.920;6.536;2023-04-23T11:32:45;8.98;;;2.15;;
61015;SDS011;46902;52.920;6.536;2023-04-23T11:35:13;5.32;;;1.70;;
61015;SDS011;46902;52.920;6.536;2023-04-23T11:37:40;6.57;;;1.85;;
61015;SDS011;46902;52.920;6.536;2023-04-23T11:40:07;7.50;;;2.25;;
61015;SDS011;46902;52.920;6.536;2023-04-23T11:42:45;8.35;;;2.28;;
61015;SDS011;46902;52.920;6.536;2023-04-23T11:45:15;7.85;;;2.17;;
61015;SDS011;46902;52.920;6.536;2023-04-23T11:47:46;6.05;;;2.00;;
61015;SDS011;46902;52.920;6.536;2023-04-23T11:50:21;8.10;;;2.30;;
61015;SDS011;46902;52.920;6.536;2023-04-23T11:52:51;6.78;;;2.33;;
61015;SDS011;46902;52.920;6.536;2023-04-23T11:55:18;7.22;;;2.63;;
61015;SDS011;46902;52.920;6.536;2023-04-23T11:57:45;8.73;;;2.40;;
61015;SDS011;46902;52.920;6.536;2023-04-23T12:00:13;4.85;;;2.15;;
61015;SDS011;46902;52.920;6.536;2023-04-23T12:02:53;7.82;;;2.28;;
61015;SDS011;46902;52.920;6.536;2023-04-23T12:08:08;9.90;;;2.17;;
61015;SDS011;46902;52.920;6.536;2023-04-23T12:13:24;6.15;;;2.47;;
61015;SDS011;46902;52.920;6.536;2023-04-23T12:15:59;5.68;;;1.75;;
61015;SDS011;46902;52.920;6.536;2023-04-23T12:18:33;6.93;;;2.25;;
61015;SDS011;46902;52.920;6.536;2023-04-23T12:21:08;8.15;;;1.98;;
61015;SDS011;46902;52.920;6.536;2023-04-23T12:23:36;8.90;;;2.20;;
61015;SDS011;46902;52.920;6.536;2023-04-23T12:26:03;7.85;;;1.80;;
61015;SDS011;46902;52.920;6.536;2023-04-23T12:28:34;5.88;;;1.50;;
61015;SDS011;46902;52.920;6.536;2023-04-23T12:31:00;6.97;;;2.00;;
61015;SDS011;46902;52.920;6.536;2023-04-23T12:33:30;8.93;;;1.80;;
61015;SDS011;46902;52.920;6.536;2023-04-23T12:35:55;7.25;;;2.17;;
61015;SDS011;46902;52.920;6.536;2023-04-23T12:38:22;7.55;;;2.33;;
61015;SDS011;46902;52.920;6.536;2023-04-23T12:40:53;9.77;;;2.38;;
61015;SDS011;46902;52.920;6.536;2023-04-23T12:43:20;6.60;;;1.90;;
61015;SDS011;46902;52.920;6.536;2023-04-23T12:45:46;8.43;;;1.83;;
61015;SDS011;46902;52.920;6.536;2023-04-23T12:48:12;6.93;;;1.88;;
61015;SDS011;46902;52.920;6.536;2023-04-23T12:50:38;7.15;;;2.00;;
61015;SDS011;46902;52.920;6.536;2023-04-23T12:53:04;5.93;;;2.00;;
61015;SDS011;46902;52.920;6.536;2023-04-23T12:55:30;8.00;;;1.95;;
61015;SDS011;46902;52.920;6.536;2023-04-23T12:57:56;5.78;;;1.77;;
61015;SDS011;46902;52.920;6.536;2023-04-23T13:00:22;7.15;;;1.75;;
61015;SDS011;46902;52.920;6.536;2023-04-23T13:02:48;7.50;;;2.00;;
61015;SDS011;46902;52.920;6.536;2023-04-23T13:05:13;7.70;;;1.90;;
61015;SDS011;46902;52.920;6.536;2023-04-23T13:07:39;6.03;;;1.75;;
61015;SDS011;46902;52.920;6.536;2023-04-23T13:10:06;5.72;;;1.83;;
61015;SDS011;46902;52.920;6.536;2023-04-23T13:12:32;5.93;;;1.90;;
61015;SDS011;46902;52.920;6.536;2023-04-23T13:14:58;6.53;;;1.52;;
61015;SDS011;46902;52.920;6.536;2023-04-23T13:17:24;10.98;;;1.70;;
61015;SDS011;46902;52.920;6.536;2023-04-23T13:19:50;8.52;;;2.10;;
61015;SDS011;46902;52.920;6.536;2023-04-23T13:22:16;5.97;;;1.23;;
61015;SDS011;46902;52.920;6.536;2023-04-23T13:24:42;6.93;;;1.98;;
61015;SDS011;46902;52.920;6.536;2023-04-23T13:27:08;6.60;;;1.50;;
61015;SDS011;46902;52.920;6.536;2023-04-23T13:29:35;7.15;;;1.70;;
61015;SDS011;46902;52.920;6.536;2023-04-23T13:32:01;7.32;;;1.70;;
61015;SDS011;46902;52.920;6.536;2023-04-23T13:34:27;8.25;;;1.67;;
61015;SDS011;46902;52.920;6.536;2023-04-23T13:36:52;7.57;;;1.80;;
61015;SDS011;46902;52.920;6.536;2023-04-23T13:39:18;7.57;;;1.40;;
61015;SDS011;46902;52.920;6.536;2023-04-23T13:41:44;5.32;;;1.50;;
61015;SDS011;46902;52.920;6.536;2023-04-23T13:44:10;6.57;;;1.50;;
61015;SDS011;46902;52.920;6.536;2023-04-23T13:46:37;5.97;;;1.23;;
61015;SDS011;46902;52.920;6.536;2023-04-23T13:49:04;5.90;;;1.38;;
61015;SDS011;46902;52.920;6.536;2023-04-23T13:51:30;5.25;;;1.20;;
61015;SDS011;46902;52.920;6.536;2023-04-23T13:53:55;3.92;;;1.30;;
61015;SDS011;46902;52.920;6.536;2023-04-23T13:56:22;5.25;;;1.48;;
61015;SDS011;46902;52.920;6.536;2023-04-23T13:58:48;6.50;;;1.23;;
61015;SDS011;46902;52.920;6.536;2023-04-23T14:01:16;6.97;;;1.65;;
61015;SDS011;46902;52.920;6.536;2023-04-23T14:03:42;7.43;;;1.60;;
61015;SDS011;46902;52.920;6.536;2023-04-23T14:06:08;5.88;;;1.85;;
61015;SDS011;46902;52.920;6.536;2023-04-23T14:08:34;4.32;;;1.40;;
61015;SDS011;46902;52.920;6.536;2023-04-23T14:11:01;5.90;;;1.58;;
61015;SDS011;46902;52.920;6.536;2023-04-23T14:13:27;6.82;;;1.83;;
61015;SDS011;46902;52.920;6.536;2023-04-23T14:15:54;7.43;;;1.92;;
61015;SDS011;46902;52.920;6.536;2023-04-23T14:18:20;5.72;;;1.45;;
61015;SDS011;46902;52.920;6.536;2023-04-23T14:20:46;6.55;;;1.60;;
61015;SDS011;46902;52.920;6.536;2023-04-23T14:25:40;5.72;;;1.30;;
61015;SDS011;46902;52.920;6.536;2023-04-23T14:30:56;8.27;;;2.10;;
61015;SDS011;46902;52.920;6.536;2023-04-23T14:33:22;6.70;;;1.55;;
61015;SDS011;46902;52.920;6.536;2023-04-23T14:35:48;9.10;;;1.98;;
61015;SDS011;46902;52.920;6.536;2023-04-23T14:38:13;4.93;;;0.95;;
61015;SDS011;46902;52.920;6.536;2023-04-23T14:40:39;5.15;;;1.63;;